createdAt,value
2022-08-14T00:02:27.391Z,26.46
2022-08-14T00:04:55.638Z,26.49
2022-08-14T00:07:23.290Z,26.44
2022-08-14T00:10:01.880Z,26.46
2022-08-14T00:12:43.881Z,26.42
2022-08-14T00:15:37.220Z,26.49
2022-08-14T00:18:06.821Z,26.47
2022-08-14T00:20:43.018Z,26.46
2022-08-14T00:23:16.388Z,26.40
2022-08-14T00:25:58.586Z,26.38
2022-08-14T00:28:36.652Z,26.41
2022-08-14T00:31:08.182Z,26.41
2022-08-14T00:33:51.125Z,26.41
2022-08-14T00:36:36.781Z,26.38
2022-08-14T00:39:18.106Z,26.39
2022-08-14T00:41:48.037Z,26.36
2022-08-14T00:44:21.265Z,26.39
2022-08-14T00:47:10.762Z,26.34
2022-08-14T00:49:43.170Z,26.27
2022-08-14T00:52:17.818Z,26.33
2022-08-14T00:54:57.763Z,26.41
2022-08-14T00:57:28.914Z,26.37
2022-08-14T00:59:57.591Z,26.39
2022-08-14T01:02:27.699Z,26.28
2022-08-14T01:04:58.956Z,26.31
2022-08-14T01:07:38.871Z,26.28
2022-08-14T01:10:51.550Z,26.30
2022-08-14T01:13:26.803Z,26.21
2022-08-14T01:16:16.149Z,26.23
2022-08-14T01:19:05.836Z,26.20
2022-08-14T01:21:46.836Z,26.22
2022-08-14T01:24:15.400Z,26.24
2022-08-14T01:26:53.445Z,26.17
2022-08-14T01:29:35.165Z,26.13
2022-08-14T01:32:10.464Z,26.11
2022-08-14T01:35:18.768Z,26.05
2022-08-14T01:37:26.050Z,26.01
2022-08-14T01:39:54.507Z,26.12
2022-08-14T01:42:40.532Z,26.19
2022-08-14T01:45:25.232Z,26.07
2022-08-14T01:48:03.108Z,25.98
2022-08-14T01:50:32.788Z,26.06
2022-08-14T01:53:02.060Z,26.07
2022-08-14T01:55:32.504Z,26.00
2022-08-14T01:58:18.916Z,26.02
2022-08-14T02:00:55.548Z,25.99
2022-08-14T02:03:24.682Z,25.95
2022-08-14T02:06:00.001Z,25.92
2022-08-14T02:08:35.072Z,25.96
2022-08-14T02:11:22.630Z,26.01
2022-08-14T02:13:59.753Z,25.95
2022-08-14T02:16:42.336Z,25.88
2022-08-14T02:19:14.378Z,25.87
2022-08-14T02:21:47.199Z,25.83
2022-08-14T02:24:40.162Z,25.87
2022-08-14T02:28:25.936Z,25.89
2022-08-14T02:30:00.479Z,25.78
2022-08-14T02:32:37.068Z,25.94
2022-08-14T02:35:18.923Z,25.98
2022-08-14T02:37:49.411Z,25.95
2022-08-14T02:40:18.689Z,26.05
2022-08-14T02:42:54.223Z,26.00
2022-08-14T02:45:38.800Z,26.01
2022-08-14T02:49:04.032Z,25.85
2022-08-14T02:51:11.435Z,25.93
2022-08-14T02:53:45.662Z,26.00
2022-08-14T02:56:30.939Z,26.00
2022-08-14T02:59:07.993Z,25.92
2022-08-14T03:01:43.346Z,25.97
2022-08-14T03:04:20.568Z,25.93
2022-08-14T03:07:06.141Z,25.78
2022-08-14T03:10:24.770Z,25.89
2022-08-14T03:12:31.219Z,25.90
2022-08-14T03:15:03.191Z,25.90
2022-08-14T03:17:41.023Z,25.79
2022-08-14T03:20:19.775Z,25.76
2022-08-14T03:22:50.797Z,25.74
2022-08-14T03:25:18.676Z,25.71
2022-08-14T03:27:48.468Z,25.75
2022-08-14T03:30:38.871Z,25.70
2022-08-14T03:33:11.107Z,25.69
2022-08-14T03:36:05.346Z,25.44
2022-08-14T03:39:13.005Z,25.60
2022-08-14T03:41:19.828Z,25.69
2022-08-14T03:44:01.087Z,25.70
2022-08-14T03:46:38.824Z,25.76
2022-08-14T03:49:12.785Z,25.43
2022-08-14T03:51:40.964Z,25.51
2022-08-14T03:54:15.699Z,25.49
2022-08-14T03:56:50.137Z,25.54
2022-08-14T03:59:18.288Z,25.44
2022-08-14T04:01:58.224Z,25.59
2022-08-14T04:04:33.586Z,25.60
2022-08-14T04:07:01.717Z,25.53
2022-08-14T04:09:29.524Z,25.55
2022-08-14T04:12:00.129Z,25.66
2022-08-14T04:14:29.858Z,25.61
2022-08-14T04:16:57.510Z,25.57
2022-08-14T04:19:28.314Z,25.66
2022-08-14T04:22:02.282Z,25.78
2022-08-14T04:24:38.249Z,25.73
2022-08-14T04:27:11.911Z,25.89
2022-08-14T04:29:42.584Z,25.99
2022-08-14T04:33:10.596Z,26.05
2022-08-14T04:35:01.337Z,26.09
2022-08-14T04:37:55.105Z,26.21
2022-08-14T04:40:41.274Z,26.20
2022-08-14T04:43:38.373Z,26.26
2022-08-14T04:46:54.821Z,26.09
2022-08-14T04:49:07.856Z,26.19
2022-08-14T04:51:37.320Z,26.20
2022-08-14T04:54:16.609Z,26.21
2022-08-14T04:56:45.329Z,26.28
2022-08-14T04:59:13.008Z,26.29
2022-08-14T05:01:48.001Z,26.26
2022-08-14T05:04:19.906Z,26.34
2022-08-14T05:06:53.635Z,26.42
2022-08-14T05:09:29.138Z,26.51
2022-08-14T05:12:04.213Z,26.59
2022-08-14T05:14:54.968Z,26.58
2022-08-14T05:17:43.700Z,26.63
2022-08-14T05:21:04.126Z,26.77
2022-08-14T05:23:01.410Z,26.85
2022-08-14T05:25:30.919Z,26.95
2022-08-14T05:28:19.138Z,26.97
2022-08-14T05:30:53.632Z,27.11
2022-08-14T05:33:24.520Z,27.15
2022-08-14T05:35:53.358Z,27.21
2022-08-14T05:38:31.018Z,27.27
2022-08-14T05:41:01.405Z,27.22
2022-08-14T05:43:40.968Z,27.30
2022-08-14T05:46:15.754Z,27.31
2022-08-14T05:48:43.869Z,27.36
2022-08-14T05:51:13.618Z,27.45
2022-08-14T05:53:42.305Z,27.40
2022-08-14T05:56:10.172Z,27.57
2022-08-14T05:58:41.194Z,27.61
2022-08-14T06:01:10.296Z,27.63
2022-08-14T06:03:40.210Z,27.71
2022-08-14T06:06:08.214Z,27.82
2022-08-14T06:08:41.481Z,27.86
2022-08-14T06:11:10.626Z,27.97
2022-08-14T06:13:47.792Z,28.01
2022-08-14T06:16:18.049Z,28.12
2022-08-14T06:18:52.628Z,28.21
2022-08-14T06:21:24.391Z,28.38
2022-08-14T06:23:53.417Z,28.43
2022-08-14T06:26:22.310Z,28.48
2022-08-14T06:28:52.276Z,28.60
2022-08-14T06:31:21.342Z,28.67
2022-08-14T06:35:09.553Z,28.78
2022-08-14T06:36:39.464Z,28.90
2022-08-14T06:39:10.404Z,28.86
2022-08-14T06:41:58.234Z,28.85
2022-08-14T06:44:32.686Z,28.95
2022-08-14T06:47:03.063Z,28.89
2022-08-14T06:49:40.553Z,28.94
2022-08-14T06:52:16.502Z,28.87
2022-08-14T06:54:45.623Z,29.11
2022-08-14T06:57:13.826Z,29.29
2022-08-14T06:59:42.186Z,29.33
2022-08-14T07:02:29.503Z,29.43
2022-08-14T07:05:20.798Z,29.67
2022-08-14T07:07:51.030Z,29.84
2022-08-14T07:10:18.836Z,29.80
2022-08-14T07:13:00.652Z,29.96
2022-08-14T07:15:34.054Z,29.82
2022-08-14T07:18:08.894Z,29.92
2022-08-14T07:20:37.665Z,29.93
2022-08-14T07:23:09.222Z,29.91
2022-08-14T07:25:42.230Z,29.97
2022-08-14T07:28:20.465Z,30.03
2022-08-14T07:30:50.915Z,30.06
2022-08-14T07:33:24.759Z,30.16
2022-08-14T07:36:03.234Z,30.41
2022-08-14T07:38:37.558Z,30.56
2022-08-14T07:41:11.923Z,30.67
2022-08-14T07:43:44.028Z,30.80
2022-08-14T07:46:20.996Z,30.95
2022-08-14T07:48:48.798Z,31.18
2022-08-14T07:51:20.743Z,31.42
2022-08-14T07:53:50.075Z,31.67
2022-08-14T07:56:46.921Z,32.00
2022-08-14T07:59:12.769Z,32.19
2022-08-14T08:01:51.139Z,32.38
2022-08-14T08:04:28.423Z,32.50
2022-08-14T08:07:03.322Z,32.62
2022-08-14T08:09:36.420Z,32.78
2022-08-14T08:12:09.228Z,32.85
2022-08-14T08:14:56.985Z,32.93
2022-08-14T08:17:34.799Z,33.03
2022-08-14T08:20:09.048Z,33.05
2022-08-14T08:22:43.447Z,33.22
2022-08-14T08:25:18.171Z,33.28
2022-08-14T08:27:59.284Z,33.31
2022-08-14T08:30:28.157Z,33.47
2022-08-14T08:32:58.559Z,33.63
2022-08-14T08:35:46.407Z,33.74
2022-08-14T08:39:16.836Z,33.78
2022-08-14T08:41:11.133Z,33.81
2022-08-14T08:43:46.193Z,33.95
2022-08-14T08:46:23.578Z,34.02
2022-08-14T08:51:42.886Z,34.43
2022-08-14T08:54:18.549Z,34.57
2022-08-14T08:56:52.102Z,34.75
2022-08-14T08:59:27.366Z,34.82
2022-08-14T09:02:04.058Z,34.91
2022-08-14T09:04:45.592Z,34.99
2022-08-14T09:07:27.751Z,35.09
2022-08-14T09:09:59.338Z,35.30
2022-08-14T09:12:33.104Z,35.27
2022-08-14T09:15:11.975Z,35.44
2022-08-14T09:17:42.629Z,35.77
2022-08-14T09:20:12.745Z,35.85
2022-08-14T09:22:42.528Z,36.02
2022-08-14T09:25:16.673Z,36.11
2022-08-14T09:27:44.243Z,36.28
2022-08-14T09:30:31.264Z,36.26
2022-08-14T09:33:09.089Z,36.27
2022-08-14T09:35:58.438Z,36.34
2022-08-14T09:38:45.379Z,36.21
2022-08-14T09:42:21.953Z,36.20
2022-08-14T09:44:30.063Z,36.18
2022-08-14T09:47:00.072Z,36.38
2022-08-14T09:49:34.055Z,36.39
2022-08-14T09:52:33.038Z,36.41
2022-08-14T09:55:01.186Z,36.43
2022-08-14T09:57:31.698Z,36.42
2022-08-14T10:00:11.958Z,36.52
2022-08-14T10:03:05.615Z,36.48
2022-08-14T10:05:39.112Z,36.28
2022-08-14T10:08:26.200Z,36.16
2022-08-14T10:10:57.347Z,36.11
2022-08-14T10:13:43.010Z,36.26
2022-08-14T10:16:25.992Z,36.28
2022-08-14T10:19:09.903Z,36.19
2022-08-14T10:21:58.499Z,36.22
2022-08-14T10:24:36.822Z,36.22
2022-08-14T10:27:05.697Z,35.98
2022-08-14T10:29:40.017Z,35.80
2022-08-14T10:32:18.348Z,36.12
2022-08-14T10:35:13.454Z,36.10
2022-08-14T10:37:48.714Z,36.23
2022-08-14T10:40:44.148Z,36.29
2022-08-14T10:43:26.213Z,36.31
2022-08-14T10:46:03.471Z,36.32
2022-08-14T10:49:09.678Z,36.27
2022-08-14T10:51:41.684Z,36.26
2022-08-14T10:54:36.190Z,36.16
2022-08-14T10:57:12.662Z,36.21
2022-08-14T10:59:51.863Z,36.16
2022-08-14T11:02:44.535Z,36.22
2022-08-14T11:05:18.322Z,35.67
2022-08-14T11:07:56.486Z,35.74
2022-08-14T11:10:54.227Z,35.41
2022-08-14T11:13:30.046Z,35.44
2022-08-14T11:16:02.122Z,35.59
2022-08-14T11:18:36.065Z,35.39
2022-08-14T11:21:09.348Z,35.41
2022-08-14T11:23:41.360Z,35.45
2022-08-14T11:26:19.120Z,35.30
2022-08-14T11:28:50.248Z,35.35
2022-08-14T11:31:26.387Z,35.50
2022-08-14T11:34:10.423Z,35.51
2022-08-14T11:37:03.748Z,35.43
2022-08-14T11:39:42.527Z,35.56
2022-08-14T11:42:56.552Z,35.53
2022-08-14T11:45:18.574Z,35.45
2022-08-14T11:48:10.882Z,35.56
2022-08-14T11:50:37.107Z,35.58
2022-08-14T11:53:08.611Z,35.38
2022-08-14T11:55:39.757Z,35.51
2022-08-14T11:58:11.300Z,35.48
2022-08-14T12:00:50.664Z,35.42
2022-08-14T12:03:37.451Z,35.50
2022-08-14T12:06:28.701Z,35.42
2022-08-14T12:09:00.032Z,35.38
2022-08-14T12:11:43.169Z,35.26
2022-08-14T12:14:29.295Z,35.21
2022-08-14T12:17:00.590Z,35.08
2022-08-14T12:19:33.827Z,35.05
2022-08-14T12:22:02.979Z,35.06
2022-08-14T12:24:32.079Z,35.04
2022-08-14T12:27:04.770Z,34.91
2022-08-14T12:29:34.877Z,34.72
2022-08-14T12:32:09.112Z,34.45
2022-08-14T12:34:45.109Z,34.26
2022-08-14T12:37:12.886Z,34.19
2022-08-14T12:39:40.904Z,34.07
2022-08-14T12:42:11.603Z,33.75
2022-08-14T12:45:00.128Z,33.73
2022-08-14T12:47:32.008Z,33.67
2022-08-14T12:50:00.543Z,33.61
2022-08-14T12:52:42.994Z,33.56
2022-08-14T12:55:20.911Z,33.46
2022-08-14T12:57:53.455Z,33.46
2022-08-14T13:00:25.607Z,33.41
2022-08-14T13:02:56.559Z,33.35
2022-08-14T13:05:27.454Z,33.36
2022-08-14T13:07:59.074Z,33.38
2022-08-14T13:10:45.969Z,33.39
2022-08-14T13:13:20.631Z,33.40
2022-08-14T13:15:57.311Z,33.32
2022-08-14T13:18:26.899Z,33.38
2022-08-14T13:20:57.865Z,33.33
2022-08-14T13:23:33.217Z,33.29
2022-08-14T13:26:04.326Z,33.24
2022-08-14T13:28:41.211Z,33.35
2022-08-14T13:31:24.161Z,33.31
2022-08-14T13:33:58.670Z,33.46
2022-08-14T13:36:51.899Z,33.56
2022-08-14T14:01:16.178Z,33.59
2022-08-14T14:03:50.224Z,33.48
2022-08-14T14:06:19.555Z,33.41
2022-08-14T14:08:49.027Z,33.34
2022-08-14T14:11:24.050Z,33.13
2022-08-14T14:13:59.565Z,33.07
2022-08-14T14:16:30.435Z,32.84
2022-08-14T14:19:09.369Z,32.64
2022-08-14T14:21:40.954Z,32.51
2022-08-14T14:24:14.701Z,32.43
2022-08-14T14:26:47.587Z,32.35
2022-08-14T14:29:24.034Z,32.37
2022-08-14T14:31:54.376Z,32.31
2022-08-14T14:34:30.010Z,32.25
2022-08-14T14:37:04.796Z,32.24
2022-08-14T14:39:35.314Z,32.24
2022-08-14T14:42:09.340Z,32.17
2022-08-14T14:44:43.963Z,32.10
2022-08-14T14:47:13.647Z,32.07
2022-08-14T14:49:54.799Z,32.00
2022-08-14T14:52:27.816Z,31.97
2022-08-14T14:55:00.686Z,31.95
2022-08-14T14:57:34.865Z,31.91
2022-08-14T15:00:08.848Z,31.86
2022-08-14T15:02:49.710Z,31.81
2022-08-14T15:05:21.456Z,31.77
2022-08-14T15:07:52.837Z,31.76
2022-08-14T15:10:26.893Z,31.78
2022-08-14T15:13:00.121Z,31.79
2022-08-14T15:15:33.369Z,31.78
2022-08-14T15:18:36.165Z,31.75
2022-08-14T15:20:58.209Z,31.73
2022-08-14T15:23:43.836Z,31.66
2022-08-14T15:26:31.027Z,31.76
2022-08-14T15:29:02.052Z,31.78
2022-08-14T15:31:30.898Z,31.79
2022-08-14T15:34:43.101Z,31.76
2022-08-14T15:37:06.670Z,31.73
2022-08-14T15:39:41.230Z,31.60
2022-08-14T15:42:16.250Z,31.60
2022-08-14T15:44:58.181Z,31.48
2022-08-14T15:47:31.431Z,31.44
2022-08-14T15:50:01.239Z,31.53
2022-08-14T15:52:37.210Z,31.54
2022-08-14T15:55:08.600Z,31.53
2022-08-14T15:57:37.574Z,31.53
2022-08-14T16:13:47.844Z,31.41
2022-08-14T16:16:35.070Z,31.47
2022-08-14T16:19:11.018Z,31.46
2022-08-14T16:22:02.007Z,31.41
2022-08-14T16:24:33.584Z,31.42
2022-08-14T16:27:05.231Z,31.33
2022-08-14T16:29:38.596Z,31.40
2022-08-14T16:32:33.137Z,31.38
2022-08-14T16:34:57.928Z,31.37
2022-08-14T16:37:30.883Z,31.30
2022-08-14T16:40:03.271Z,31.39
2022-08-14T16:43:02.660Z,31.42
2022-08-14T16:45:25.650Z,31.39
2022-08-14T16:47:53.565Z,31.36
2022-08-14T16:50:40.751Z,31.35
2022-08-14T16:53:09.610Z,31.35
2022-08-14T16:55:53.231Z,31.32
2022-08-14T16:58:27.140Z,31.40
2022-08-14T17:01:22.462Z,31.32
2022-08-14T17:03:56.649Z,31.29
2022-08-14T17:06:38.224Z,31.28
2022-08-14T17:09:07.680Z,31.26
2022-08-14T17:11:51.986Z,31.23
2022-08-14T17:15:10.214Z,31.21
2022-08-14T17:17:38.999Z,31.23
2022-08-14T17:20:39.518Z,31.19
2022-08-14T17:23:10.971Z,31.19
2022-08-14T17:25:39.049Z,31.15
2022-08-14T17:28:52.335Z,31.10
2022-08-14T17:31:07.545Z,31.08
2022-08-14T17:33:44.384Z,31.02
2022-08-14T17:36:24.090Z,31.03
2022-08-14T17:39:11.983Z,31.01
2022-08-14T17:42:03.565Z,30.95
2022-08-14T17:44:45.050Z,30.87
2022-08-14T17:47:18.382Z,30.90
2022-08-14T17:49:51.733Z,30.85
2022-08-14T17:52:33.934Z,30.77
2022-08-14T17:55:04.751Z,30.81
2022-08-14T17:57:35.327Z,30.82
2022-08-14T18:00:16.594Z,30.74
2022-08-14T18:02:50.502Z,30.66
2022-08-14T18:05:23.235Z,30.66
2022-08-14T18:08:00.197Z,30.62
2022-08-14T18:10:56.106Z,30.55
2022-08-14T18:13:51.522Z,30.48
2022-08-14T18:16:20.404Z,30.49
2022-08-14T18:18:51.589Z,30.43
2022-08-14T18:21:40.467Z,30.44
2022-08-14T18:24:28.120Z,30.42
2022-08-14T18:27:01.599Z,30.34
2022-08-14T18:29:33.117Z,30.32
2022-08-14T18:32:01.928Z,30.31
2022-08-14T18:34:50.703Z,30.31
2022-08-14T18:37:21.590Z,30.29
2022-08-14T18:40:03.314Z,30.25
2022-08-14T18:42:35.332Z,30.18
2022-08-14T18:45:15.344Z,30.15
2022-08-14T18:50:33.256Z,30.07
2022-08-14T18:53:10.861Z,30.03
2022-08-14T18:55:53.288Z,29.99
2022-08-14T18:58:31.346Z,29.95
2022-08-14T19:01:04.463Z,29.90
2022-08-14T19:03:39.160Z,29.92
2022-08-14T19:06:08.981Z,29.85
2022-08-14T19:08:39.446Z,29.88
2022-08-14T19:11:40.577Z,29.88
2022-08-14T19:14:14.710Z,29.88
2022-08-14T19:16:48.377Z,29.77
2022-08-14T19:19:23.870Z,29.79
2022-08-14T19:21:56.638Z,29.79
2022-08-14T19:24:43.771Z,29.75
2022-08-14T19:27:24.842Z,29.75
2022-08-14T19:30:20.529Z,29.70
2022-08-14T19:32:55.937Z,29.65
2022-08-14T19:35:49.539Z,29.63
2022-08-14T19:38:47.994Z,29.60
2022-08-14T19:41:29.571Z,29.55
2022-08-14T19:44:10.427Z,29.55
2022-08-14T19:47:01.131Z,29.47
2022-08-14T19:50:24.465Z,29.51
2022-08-14T19:52:35.291Z,29.48
2022-08-14T19:55:17.860Z,29.47
2022-08-14T19:57:52.382Z,29.39
2022-08-14T20:00:28.957Z,29.43
2022-08-14T20:03:10.978Z,29.31
2022-08-14T20:05:45.571Z,29.31
2022-08-14T20:10:58.786Z,29.27
2022-08-14T20:12:00.697Z,29.23
2022-08-14T20:14:20.887Z,29.20
2022-08-14T20:17:06.666Z,29.16
2022-08-14T20:19:37.807Z,29.15
2022-08-14T20:22:37.442Z,29.12
2022-08-14T20:25:20.689Z,29.09
2022-08-14T20:27:59.523Z,29.03
2022-08-14T20:30:33.758Z,29.04
2022-08-14T20:33:07.986Z,29.00
2022-08-14T20:35:38.908Z,28.97
2022-08-14T20:38:28.714Z,28.97
2022-08-14T20:40:56.742Z,28.96
2022-08-14T20:43:44.445Z,28.93
2022-08-14T20:46:39.053Z,28.96
2022-08-14T20:49:19.399Z,28.86
2022-08-14T20:51:58.853Z,28.89
2022-08-14T20:54:33.456Z,28.86
2022-08-14T20:57:10.615Z,28.85
2022-08-14T20:59:43.463Z,28.87
2022-08-14T21:02:34.650Z,28.83
2022-08-14T21:05:17.014Z,28.80
2022-08-14T21:07:50.214Z,28.75
2022-08-14T21:10:33.640Z,28.75
2022-08-14T21:13:26.101Z,28.68
2022-08-14T21:15:58.071Z,28.61
2022-08-14T21:18:32.585Z,28.65
2022-08-14T21:21:07.028Z,28.55
2022-08-14T21:23:54.464Z,28.55
2022-08-14T21:26:33.260Z,28.54
2022-08-14T21:29:14.684Z,28.52
2022-08-14T21:31:55.172Z,28.50
2022-08-14T21:34:31.131Z,28.46
2022-08-14T21:37:09.074Z,28.47
2022-08-14T21:39:38.471Z,28.38
2022-08-14T21:42:06.538Z,28.38
2022-08-14T21:44:42.840Z,28.34
2022-08-14T21:47:13.426Z,28.29
2022-08-14T21:49:46.352Z,28.23
2022-08-14T21:52:50.282Z,28.23
2022-08-14T21:55:12.350Z,28.23
2022-08-14T21:57:56.712Z,28.22
2022-08-14T22:00:39.641Z,28.14
2022-08-14T22:03:17.287Z,28.16
2022-08-14T22:05:49.615Z,28.08
2022-08-14T22:08:21.112Z,28.07
2022-08-14T22:10:51.421Z,28.05
2022-08-14T22:13:22.693Z,28.01
2022-08-14T22:15:54.329Z,28.04
2022-08-14T22:18:25.868Z,28.01
2022-08-14T22:20:56.592Z,28.02
2022-08-14T22:23:26.112Z,28.04
2022-08-14T22:25:55.304Z,28.00
2022-08-14T22:28:33.159Z,28.01
2022-08-14T22:31:10.386Z,27.98
2022-08-14T22:33:40.476Z,27.95
2022-08-14T22:36:33.784Z,27.92
2022-08-14T22:39:10.949Z,27.87
2022-08-14T22:41:42.784Z,27.90
2022-08-14T22:44:16.768Z,27.91
2022-08-14T22:46:46.476Z,27.90
2022-08-14T22:50:28.499Z,27.91
2022-08-14T22:52:31.827Z,27.92
2022-08-14T22:54:55.184Z,27.85
2022-08-14T22:57:22.761Z,27.89
2022-08-14T22:59:50.339Z,27.90
2022-08-14T23:02:30.195Z,27.89
2022-08-14T23:05:01.712Z,27.85
2022-08-14T23:09:02.209Z,27.89
2022-08-14T23:10:33.035Z,27.90
2022-08-14T23:13:04.302Z,27.86
2022-08-14T23:15:34.122Z,27.81
2022-08-14T23:18:03.431Z,27.82
2022-08-14T23:20:33.855Z,27.75
2022-08-14T23:23:12.516Z,27.76
2022-08-14T23:25:59.360Z,27.76
2022-08-14T23:28:33.345Z,27.66
2022-08-14T23:31:34.894Z,27.74
2022-08-14T23:34:07.461Z,27.70
2022-08-14T23:36:54.552Z,27.71
2022-08-14T23:39:34.591Z,27.70
2022-08-14T23:42:08.787Z,27.66
2022-08-14T23:44:38.130Z,27.65
2022-08-14T23:47:11.559Z,27.69
2022-08-14T23:50:00.801Z,27.69
2022-08-14T23:52:50.647Z,27.66
2022-08-14T23:55:25.425Z,27.69
2022-08-14T23:57:58.135Z,27.68
